Time;durP1;ratioP1;P1;durP2;ratioP2;P2;SDS_P1;SDS_P2;PMS_P1;PMS_P2;Temp;Humidity;BMP_temperature;BMP_pressure;BME280_temperature;BME280_humidity;BME280_pressure;Samples;Min_cycle;Max_cycle;Signal;HPM_P1;HPM_P2
2022/01/02 00:00:40;;;;;;;33.13;12.75;;;;;;;;;;5034458;28;20029;-61
2022/01/02 00:03:07;;;;;;;28.90;12.20;;;;;;;;;;5033529;28;20383;-57
2022/01/02 00:05:37;;;;;;;28.17;13.10;;;;;;;;;;5034338;28;20048;-58
2022/01/02 00:08:03;;;;;;;28.80;11.43;;;;;;;;;;5034220;28;20026;-57
2022/01/02 00:10:33;;;;;;;24.70;11.70;;;;;;;;;;5034090;28;20022;-63
2022/01/02 00:13:00;;;;;;;25.17;11.82;;;;;;;;;;5034166;28;20021;-61
2022/01/02 00:15:26;;;;;;;26.45;12.80;;;;;;;;;;5034197;28;20026;-62
2022/01/02 00:18:12;;;;;;;26.70;11.95;;;;;;;;;;5033820;28;20071;-57
2022/01/02 00:20:49;;;;;;;22.63;10.10;;;;;;;;;;5034205;28;20494;-61
2022/01/02 00:23:24;;;;;;;23.38;11.70;;;;;;;;;;5033903;28;20044;-64
2022/01/02 00:25:53;;;;;;;24.33;11.07;;;;;;;;;;5033761;28;20128;-65
2022/01/02 00:28:19;;;;;;;25.55;11.20;;;;;;;;;;5033920;28;20060;-64
2022/01/02 00:30:47;;;;;;;21.75;10.07;;;;;;;;;;5033554;28;20080;-60
2022/01/02 00:33:13;;;;;;;22.20;11.10;;;;;;;;;;5033485;28;20034;-60
2022/01/02 00:35:39;;;;;;;27.13;10.80;;;;;;;;;;5033586;28;20402;-63
2022/01/02 00:38:15;;;;;;;21.13;11.00;;;;;;;;;;5033342;28;20033;-62
2022/01/02 00:40:44;;;;;;;21.98;10.15;;;;;;;;;;5033640;28;20021;-66
2022/01/02 00:43:13;;;;;;;20.30;10.20;;;;;;;;;;5033658;28;20037;-66
2022/01/02 00:45:45;;;;;;;23.00;10.52;;;;;;;;;;5033497;28;20425;-61
2022/01/02 00:48:21;;;;;;;22.08;9.38;;;;;;;;;;5033557;28;20163;-65
2022/01/02 00:51:03;;;;;;;20.52;9.50;;;;;;;;;;5033422;28;20025;-62
2022/01/02 00:53:34;;;;;;;23.02;9.55;;;;;;;;;;5033226;28;20144;-62
2022/01/02 00:56:01;;;;;;;19.95;9.48;;;;;;;;;;5033300;28;20385;-63
2022/01/02 00:58:53;;;;;;;20.50;8.35;;;;;;;;;;5033218;28;20025;-58
2022/01/02 01:01:24;;;;;;;23.67;9.20;;;;;;;;;;5024635;28;20034;-63
2022/01/02 01:03:53;;;;;;;18.45;8.57;;;;;;;;;;5033144;28;20040;-59
2022/01/02 01:06:26;;;;;;;19.15;9.50;;;;;;;;;;5033162;28;20172;-59
2022/01/02 01:08:58;;;;;;;18.58;9.73;;;;;;;;;;5032756;28;20018;-59
2022/01/02 01:11:27;;;;;;;19.88;9.10;;;;;;;;;;5032982;28;20029;-60
2022/01/02 01:13:54;;;;;;;12.27;7.72;;;;;;;;;;5032888;28;20495;-59
2022/01/02 01:16:21;;;;;;;16.52;8.05;;;;;;;;;;5032194;28;20111;-59
2022/01/02 01:18:47;;;;;;;20.08;8.40;;;;;;;;;;5032979;28;20021;-59
2022/01/02 01:21:13;;;;;;;13.88;6.50;;;;;;;;;;5032860;28;20075;-61
2022/01/02 01:23:40;;;;;;;18.42;8.05;;;;;;;;;;5032741;28;20033;-59
2022/01/02 01:26:08;;;;;;;20.08;7.75;;;;;;;;;;5032747;28;20027;-59
2022/01/02 01:28:33;;;;;;;18.33;8.43;;;;;;;;;;5032741;28;20523;-67
2022/01/02 01:30:58;;;;;;;14.13;7.75;;;;;;;;;;5032548;28;20140;-66
2022/01/02 01:33:24;;;;;;;17.23;7.80;;;;;;;;;;5032441;28;20500;-65
2022/01/02 01:35:49;;;;;;;17.23;7.82;;;;;;;;;;5032645;28;20029;-63
2022/01/02 01:38:15;;;;;;;17.38;7.05;;;;;;;;;;5032382;28;20040;-64
2022/01/02 01:40:47;;;;;;;18.10;7.15;;;;;;;;;;5032522;28;20037;-63
2022/01/02 01:43:14;;;;;;;15.18;6.97;;;;;;;;;;5032433;28;20025;-62
2022/01/02 01:45:39;;;;;;;12.90;6.18;;;;;;;;;;5014873;28;20065;-58
2022/01/02 01:48:06;;;;;;;15.75;6.57;;;;;;;;;;5032519;28;20413;-60
2022/01/02 01:50:39;;;;;;;12.48;6.72;;;;;;;;;;5032315;28;20075;-62
2022/01/02 01:53:06;;;;;;;15.57;6.38;;;;;;;;;;5014752;28;20030;-66
2022/01/02 01:55:33;;;;;;;12.63;6.65;;;;;;;;;;5032239;28;20474;-57
2022/01/02 01:58:00;;;;;;;15.05;6.25;;;;;;;;;;5032200;28;20036;-62
2022/01/02 02:00:25;;;;;;;17.23;5.93;;;;;;;;;;5032439;28;20034;-61
2022/01/02 02:02:51;;;;;;;9.35;5.70;;;;;;;;;;5032306;28;20040;-63
2022/01/02 02:05:16;;;;;;;13.00;5.88;;;;;;;;;;5031707;28;20038;-61
2022/01/02 02:07:44;;;;;;;11.85;5.22;;;;;;;;;;5032439;28;20038;-61
2022/01/02 02:10:23;;;;;;;8.90;4.68;;;;;;;;;;5014429;28;20151;-62
2022/01/02 02:12:50;;;;;;;11.63;5.28;;;;;;;;;;5032449;28;20492;-61
2022/01/02 02:15:17;;;;;;;7.38;4.55;;;;;;;;;;5032158;28;20467;-64
2022/01/02 02:17:44;;;;;;;12.65;5.32;;;;;;;;;;5032306;28;20128;-64
2022/01/02 02:20:19;;;;;;;9.65;4.65;;;;;;;;;;5031947;28;20025;-61
2022/01/02 02:22:48;;;;;;;13.35;5.07;;;;;;;;;;5032089;28;20034;-62
2022/01/02 02:25:16;;;;;;;11.10;4.50;;;;;;;;;;5032176;28;20021;-63
2022/01/02 02:27:49;;;;;;;10.65;5.15;;;;;;;;;;5035736;28;20084;-64
2022/01/02 02:30:15;;;;;;;12.00;4.93;;;;;;;;;;5035790;28;20168;-64
2022/01/02 02:32:40;;;;;;;15.27;5.53;;;;;;;;;;5035924;28;20455;-63
2022/01/02 02:35:06;;;;;;;12.80;4.72;;;;;;;;;;5035916;28;20022;-65
2022/01/02 02:37:31;;;;;;;14.13;4.75;;;;;;;;;;5035885;28;20033;-67
2022/01/02 02:39:57;;;;;;;7.85;4.22;;;;;;;;;;5035806;28;20021;-65
2022/01/02 02:42:33;;;;;;;11.43;5.13;;;;;;;;;;5035875;28;20057;-64
2022/01/02 02:50:49;;;;;;;11.43;4.47;;;;;;;;;;4955705;29;20094;-64
2022/01/02 02:53:15;;;;;;;10.40;4.97;;;;;;;;;;4955254;29;20031;-63
2022/01/02 02:55:47;;;;;;;10.60;4.70;;;;;;;;;;4955435;29;20039;-64
2022/01/02 03:01:00;;;;;;;8.27;4.20;;;;;;;;;;4955248;29;20154;-64
2022/01/02 03:03:26;;;;;;;10.85;4.53;;;;;;;;;;4955093;29;20178;-67
2022/01/02 03:05:52;;;;;;;10.95;4.50;;;;;;;;;;4955090;29;20067;-65
2022/01/02 03:08:18;;;;;;;8.02;4.03;;;;;;;;;;4955131;28;20071;-64
2022/01/02 03:10:43;;;;;;;8.75;4.50;;;;;;;;;;4955022;29;20032;-67
2022/01/02 03:13:09;;;;;;;7.85;4.30;;;;;;;;;;4955066;29;20047;-67
2022/01/02 03:15:34;;;;;;;9.10;4.38;;;;;;;;;;4955018;29;20070;-67
2022/01/02 03:18:00;;;;;;;8.75;4.28;;;;;;;;;;4954838;29;20054;-66
2022/01/02 03:20:25;;;;;;;10.98;3.80;;;;;;;;;;4954933;29;20046;-67
2022/01/02 03:22:50;;;;;;;11.30;4.70;;;;;;;;;;4954914;29;20117;-66
2022/01/02 03:25:17;;;;;;;7.57;3.85;;;;;;;;;;4992970;28;20038;-67
2022/01/02 03:27:44;;;;;;;9.05;4.15;;;;;;;;;;5035216;28;20029;-65
2022/01/02 03:30:10;;;;;;;9.07;4.05;;;;;;;;;;5034846;28;20032;-67
2022/01/02 03:32:36;;;;;;;9.43;4.10;;;;;;;;;;5034781;28;20032;-67
2022/01/02 03:35:02;;;;;;;9.93;3.95;;;;;;;;;;5034741;28;20029;-66
2022/01/02 03:37:29;;;;;;;9.35;4.05;;;;;;;;;;5033885;28;20036;-67
2022/01/02 03:39:55;;;;;;;13.48;5.07;;;;;;;;;;5034437;28;20542;-66
2022/01/02 03:42:21;;;;;;;12.73;3.97;;;;;;;;;;5034781;28;20036;-67
2022/01/02 03:44:46;;;;;;;11.48;5.10;;;;;;;;;;5034596;28;20021;-59
2022/01/02 03:47:11;;;;;;;10.45;4.18;;;;;;;;;;5034412;28;20202;-57
2022/01/02 03:49:37;;;;;;;7.55;3.97;;;;;;;;;;5034578;28;20022;-60
2022/01/02 03:52:03;;;;;;;9.23;4.45;;;;;;;;;;5016858;28;20103;-61
2022/01/02 03:54:29;;;;;;;9.98;4.38;;;;;;;;;;5034566;28;20056;-60
2022/01/02 03:56:54;;;;;;;9.18;4.43;;;;;;;;;;5034770;28;20057;-58
2022/01/02 03:59:20;;;;;;;8.88;4.35;;;;;;;;;;5034350;28;20132;-59
2022/01/02 04:01:46;;;;;;;11.65;4.30;;;;;;;;;;5034316;28;20021;-59
2022/01/02 04:04:11;;;;;;;11.02;4.38;;;;;;;;;;5034218;28;20439;-60
2022/01/02 04:06:37;;;;;;;8.48;4.00;;;;;;;;;;5034187;28;20096;-59
2022/01/02 04:09:03;;;;;;;10.38;4.80;;;;;;;;;;5034265;28;20420;-60
2022/01/02 04:11:29;;;;;;;6.78;4.22;;;;;;;;;;5034296;28;20022;-60
2022/01/02 04:13:54;;;;;;;10.63;4.25;;;;;;;;;;5034206;28;20092;-57
2022/01/02 04:16:19;;;;;;;8.00;4.50;;;;;;;;;;5033939;28;20044;-60
2022/01/02 04:18:45;;;;;;;9.05;4.40;;;;;;;;;;5033952;28;20388;-65
2022/01/02 04:21:10;;;;;;;9.13;4.32;;;;;;;;;;5034124;28;20029;-66
2022/01/02 04:23:38;;;;;;;8.45;4.45;;;;;;;;;;5033891;28;20377;-67
2022/01/02 04:26:04;;;;;;;8.00;4.50;;;;;;;;;;5033809;28;20488;-66
2022/01/02 04:28:30;;;;;;;9.40;4.22;;;;;;;;;;5033940;28;20491;-66
2022/01/02 04:30:55;;;;;;;9.80;4.68;;;;;;;;;;5033321;28;20042;-64
2022/01/02 04:33:21;;;;;;;10.02;4.63;;;;;;;;;;5033752;28;20033;-65
2022/01/02 04:35:46;;;;;;;8.80;4.15;;;;;;;;;;5033694;28;20022;-67
2022/01/02 04:38:13;;;;;;;9.75;4.10;;;;;;;;;;5033674;28;20037;-65
2022/01/02 04:40:39;;;;;;;9.32;4.30;;;;;;;;;;5033638;28;20022;-66
2022/01/02 04:43:04;;;;;;;9.95;4.07;;;;;;;;;;5033621;28;20025;-67
2022/01/02 04:45:30;;;;;;;9.95;4.70;;;;;;;;;;5033306;28;20021;-64
2022/01/02 04:47:55;;;;;;;7.38;4.68;;;;;;;;;;5033603;28;20472;-64
2022/01/02 04:50:21;;;;;;;9.38;4.80;;;;;;;;;;5032915;28;20072;-66
2022/01/02 04:52:46;;;;;;;7.70;4.22;;;;;;;;;;5033459;28;20037;-64
2022/01/02 04:55:12;;;;;;;10.77;4.93;;;;;;;;;;5033366;28;20026;-63
2022/01/02 04:57:37;;;;;;;12.00;5.05;;;;;;;;;;5033549;28;20079;-65
2022/01/02 05:00:04;;;;;;;12.30;4.97;;;;;;;;;;5032977;28;20083;-60
2022/01/02 05:02:30;;;;;;;11.35;4.75;;;;;;;;;;5033270;28;20037;-65
2022/01/02 05:04:55;;;;;;;7.68;5.07;;;;;;;;;;5033023;28;20017;-60
2022/01/02 05:07:21;;;;;;;14.38;5.40;;;;;;;;;;5015179;28;20029;-67
2022/01/02 05:09:46;;;;;;;11.98;4.55;;;;;;;;;;5033053;28;20021;-65
2022/01/02 05:12:12;;;;;;;9.80;5.13;;;;;;;;;;5033123;28;20034;-60
2022/01/02 05:14:37;;;;;;;11.65;4.95;;;;;;;;;;5032808;28;20099;-63
2022/01/02 05:17:03;;;;;;;8.80;4.35;;;;;;;;;;5032755;28;20029;-64
2022/01/02 05:19:28;;;;;;;11.48;4.80;;;;;;;;;;5032658;28;20049;-61
2022/01/02 05:21:53;;;;;;;10.00;4.20;;;;;;;;;;5032937;28;20091;-64
2022/01/02 05:24:19;;;;;;;10.55;4.60;;;;;;;;;;5032821;28;20071;-63
2022/01/02 05:26:44;;;;;;;9.95;5.05;;;;;;;;;;5032818;28;20029;-64
2022/01/02 05:29:10;;;;;;;9.65;4.88;;;;;;;;;;5032562;28;20420;-65
2022/01/02 05:31:35;;;;;;;10.05;5.43;;;;;;;;;;5032669;28;20542;-61
2022/01/02 05:34:01;;;;;;;10.82;4.53;;;;;;;;;;5014748;28;20056;-64
2022/01/02 05:36:26;;;;;;;11.10;5.25;;;;;;;;;;5032702;28;20075;-64
2022/01/02 05:38:51;;;;;;;11.10;4.78;;;;;;;;;;5032286;28;20610;-65
2022/01/02 05:41:18;;;;;;;9.07;4.35;;;;;;;;;;5032696;28;20029;-65
2022/01/02 05:43:43;;;;;;;8.45;4.50;;;;;;;;;;5032287;28;20369;-63
2022/01/02 05:46:09;;;;;;;9.15;4.60;;;;;;;;;;5032761;28;20037;-64
2022/01/02 05:48:36;;;;;;;9.45;4.72;;;;;;;;;;5032492;28;20048;-64
2022/01/02 05:51:02;;;;;;;11.15;4.60;;;;;;;;;;5032441;28;20029;-65
2022/01/02 05:53:31;;;;;;;9.93;4.90;;;;;;;;;;5032358;28;20500;-61
2022/01/02 05:55:57;;;;;;;10.88;4.50;;;;;;;;;;5032415;28;20380;-62
2022/01/02 05:58:22;;;;;;;7.43;4.55;;;;;;;;;;5032250;28;20376;-62
2022/01/02 06:00:48;;;;;;;8.98;5.10;;;;;;;;;;5016410;28;20018;-64
2022/01/02 06:03:13;;;;;;;9.95;4.35;;;;;;;;;;5038733;28;20013;-63
2022/01/02 06:05:39;;;;;;;11.82;4.72;;;;;;;;;;5038950;28;20377;-63
2022/01/02 06:08:04;;;;;;;10.85;5.20;;;;;;;;;;5038701;28;20108;-60
2022/01/02 06:10:30;;;;;;;11.10;5.10;;;;;;;;;;5039266;28;20542;-64
2022/01/02 06:12:55;;;;;;;10.52;5.05;;;;;;;;;;5038607;28;20036;-62
2022/01/02 06:15:20;;;;;;;11.45;4.57;;;;;;;;;;5038749;28;20025;-62
2022/01/02 06:17:46;;;;;;;8.93;4.43;;;;;;;;;;5038830;28;20026;-62
2022/01/02 06:20:11;;;;;;;11.35;5.03;;;;;;;;;;5038784;28;20032;-62
2022/01/02 06:22:37;;;;;;;9.75;4.60;;;;;;;;;;5038555;28;20030;-61
2022/01/02 06:25:03;;;;;;;10.30;4.50;;;;;;;;;;5038927;28;20033;-58
2022/01/02 06:27:28;;;;;;;8.85;4.68;;;;;;;;;;5038295;28;20030;-62
2022/01/02 06:29:54;;;;;;;9.23;4.70;;;;;;;;;;5020849;28;20108;-65
2022/01/02 06:32:19;;;;;;;9.48;5.75;;;;;;;;;;5038614;28;20029;-64
2022/01/02 06:34:46;;;;;;;7.70;4.75;;;;;;;;;;5038714;28;20068;-61
2022/01/02 06:37:12;;;;;;;10.63;4.93;;;;;;;;;;5038828;28;20472;-65
2022/01/02 06:39:37;;;;;;;12.48;5.22;;;;;;;;;;5038604;28;20460;-59
2022/01/02 06:42:03;;;;;;;9.23;4.82;;;;;;;;;;5038502;28;20076;-65
2022/01/02 06:44:28;;;;;;;10.82;4.95;;;;;;;;;;5038552;28;20029;-65
2022/01/02 06:46:54;;;;;;;9.20;4.57;;;;;;;;;;5038485;28;20030;-59
2022/01/02 06:49:19;;;;;;;9.32;5.57;;;;;;;;;;5037929;28;20044;-60
2022/01/02 06:51:45;;;;;;;11.63;5.80;;;;;;;;;;5038628;28;20030;-59
2022/01/02 06:54:10;;;;;;;10.63;5.32;;;;;;;;;;5038443;28;20022;-61
2022/01/02 06:56:36;;;;;;;10.18;5.20;;;;;;;;;;5038231;28;20026;-63
2022/01/02 06:59:01;;;;;;;15.25;5.20;;;;;;;;;;5038244;28;20431;-58
2022/01/02 07:01:27;;;;;;;10.00;5.13;;;;;;;;;;5038322;28;20465;-56
2022/01/02 07:03:52;;;;;;;11.57;4.80;;;;;;;;;;5038297;28;20017;-59
2022/01/02 07:06:17;;;;;;;10.60;5.38;;;;;;;;;;5038439;28;20025;-59
2022/01/02 07:08:43;;;;;;;11.07;5.63;;;;;;;;;;5020362;28;20021;-56
2022/01/02 07:11:10;;;;;;;9.13;5.15;;;;;;;;;;5038194;28;20021;-64
2022/01/02 07:13:35;;;;;;;10.25;5.53;;;;;;;;;;5035694;28;20029;-66
2022/01/02 07:16:01;;;;;;;11.10;5.15;;;;;;;;;;5035094;28;20022;-61
2022/01/02 07:18:26;;;;;;;10.05;4.78;;;;;;;;;;5034837;28;20021;-65
2022/01/02 07:20:52;;;;;;;7.22;4.35;;;;;;;;;;5035248;28;20079;-64
2022/01/02 07:23:17;;;;;;;8.68;5.25;;;;;;;;;;5034987;28;20380;-63
2022/01/02 07:25:43;;;;;;;10.18;5.75;;;;;;;;;;5035099;28;20368;-62
2022/01/02 07:28:08;;;;;;;10.50;4.68;;;;;;;;;;5034968;28;20048;-61
2022/01/02 07:30:33;;;;;;;13.30;5.43;;;;;;;;;;5034613;28;20400;-64
2022/01/02 07:33:02;;;;;;;11.40;5.15;;;;;;;;;;5034575;28;20037;-62
2022/01/02 07:35:29;;;;;;;11.30;5.28;;;;;;;;;;5034681;28;20033;-62
2022/01/02 07:37:54;;;;;;;10.90;5.57;;;;;;;;;;5034502;28;20033;-59
2022/01/02 07:40:20;;;;;;;15.55;6.10;;;;;;;;;;5034614;28;20026;-62
2022/01/02 07:42:46;;;;;;;9.80;5.50;;;;;;;;;;5034565;28;20116;-60
2022/01/02 07:45:12;;;;;;;12.80;5.28;;;;;;;;;;5034689;28;20353;-63
2022/01/02 07:47:39;;;;;;;11.35;5.60;;;;;;;;;;5034593;28;20026;-62
2022/01/02 07:50:05;;;;;;;12.18;5.72;;;;;;;;;;5034237;28;20473;-64
2022/01/02 07:52:30;;;;;;;10.95;5.22;;;;;;;;;;5034340;28;20075;-60
2022/01/02 07:54:55;;;;;;;13.25;5.90;;;;;;;;;;5034180;28;20076;-65
2022/01/02 07:57:21;;;;;;;11.23;5.18;;;;;;;;;;5034360;28;20117;-61
2022/01/02 07:59:47;;;;;;;12.20;5.63;;;;;;;;;;5034426;28;20100;-62
2022/01/02 08:02:12;;;;;;;8.95;5.22;;;;;;;;;;5034169;28;20049;-65
2022/01/02 08:04:38;;;;;;;10.82;5.75;;;;;;;;;;5034191;28;20492;-62
2022/01/02 08:07:03;;;;;;;13.35;6.43;;;;;;;;;;5034257;28;20026;-62
2022/01/02 08:09:29;;;;;;;10.95;5.70;;;;;;;;;;5034001;28;20026;-60
2022/01/02 08:11:54;;;;;;;9.45;6.03;;;;;;;;;;5034393;28;20163;-63
2022/01/02 08:14:21;;;;;;;10.98;6.18;;;;;;;;;;5034049;28;20033;-60
2022/01/02 08:16:47;;;;;;;10.82;5.40;;;;;;;;;;5034144;28;20021;-61
2022/01/02 08:19:13;;;;;;;14.30;5.75;;;;;;;;;;5034139;28;20511;-62
2022/01/02 08:21:41;;;;;;;14.50;5.57;;;;;;;;;;5034141;28;20026;-63
2022/01/02 08:24:07;;;;;;;13.13;5.78;;;;;;;;;;5033180;28;20033;-64
2022/01/02 08:26:32;;;;;;;18.95;6.70;;;;;;;;;;5034088;28;20091;-62
2022/01/02 08:29:01;;;;;;;10.65;5.60;;;;;;;;;;5033788;28;20086;-64
2022/01/02 08:31:28;;;;;;;9.98;5.18;;;;;;;;;;5033739;28;20041;-64
2022/01/02 08:33:54;;;;;;;11.80;5.20;;;;;;;;;;5033633;28;20037;-65
2022/01/02 08:36:20;;;;;;;13.27;5.63;;;;;;;;;;5033739;28;20048;-66
2022/01/02 08:38:47;;;;;;;11.90;5.22;;;;;;;;;;5033304;28;20469;-63
2022/01/02 08:41:14;;;;;;;10.98;4.78;;;;;;;;;;5033532;28;20025;-65
2022/01/02 08:43:40;;;;;;;10.77;5.70;;;;;;;;;;5033443;28;20503;-65
2022/01/02 08:46:05;;;;;;;11.07;4.97;;;;;;;;;;5033725;28;20033;-65
2022/01/02 08:48:31;;;;;;;12.70;5.40;;;;;;;;;;5033337;28;20564;-65
2022/01/02 08:50:57;;;;;;;10.15;5.78;;;;;;;;;;5032818;28;20052;-60
2022/01/02 08:53:22;;;;;;;11.13;5.97;;;;;;;;;;5033320;28;20112;-64
2022/01/02 08:55:48;;;;;;;12.50;5.45;;;;;;;;;;5033436;28;20144;-65
2022/01/02 08:58:13;;;;;;;10.52;5.60;;;;;;;;;;5033176;28;20041;-65
2022/01/02 09:00:39;;;;;;;8.68;4.90;;;;;;;;;;5033444;28;20104;-65
2022/01/02 09:03:06;;;;;;;11.27;5.28;;;;;;;;;;5033308;28;20544;-65
2022/01/02 09:05:32;;;;;;;14.05;5.18;;;;;;;;;;5033036;28;20014;-67
2022/01/02 09:07:57;;;;;;;14.65;6.75;;;;;;;;;;5032822;28;20067;-65
2022/01/02 09:10:23;;;;;;;8.80;5.15;;;;;;;;;;5033352;28;20045;-66
2022/01/02 09:12:49;;;;;;;11.70;5.38;;;;;;;;;;5032738;28;20383;-66
2022/01/02 09:15:14;;;;;;;12.85;5.65;;;;;;;;;;5032967;28;20021;-65
2022/01/02 09:17:40;;;;;;;13.32;5.13;;;;;;;;;;5032943;28;20074;-66
2022/01/02 09:20:07;;;;;;;12.90;5.20;;;;;;;;;;5032593;28;20013;-66
2022/01/02 09:22:32;;;;;;;9.63;4.88;;;;;;;;;;5014763;28;20116;-65
2022/01/02 09:24:58;;;;;;;11.55;5.07;;;;;;;;;;5032515;28;20100;-66
2022/01/02 09:27:24;;;;;;;10.30;5.18;;;;;;;;;;5032478;28;20109;-65
2022/01/02 09:29:49;;;;;;;9.95;4.57;;;;;;;;;;5032904;28;20111;-66
2022/01/02 09:32:15;;;;;;;9.05;4.38;;;;;;;;;;5032357;28;20037;-65
2022/01/02 09:34:40;;;;;;;10.30;4.70;;;;;;;;;;5032671;28;20544;-60
2022/01/02 09:37:06;;;;;;;9.15;5.25;;;;;;;;;;5031689;28;20034;-58
2022/01/02 09:39:31;;;;;;;10.38;4.15;;;;;;;;;;5032620;28;20024;-60
2022/01/02 09:41:57;;;;;;;7.80;3.63;;;;;;;;;;5032436;28;20022;-60
2022/01/02 09:44:22;;;;;;;7.50;3.88;;;;;;;;;;5032457;28;20048;-59
2022/01/02 09:46:52;;;;;;;7.57;3.83;;;;;;;;;;5032475;28;20025;-59
2022/01/02 09:49:19;;;;;;;11.68;3.95;;;;;;;;;;5032377;28;20041;-60
2022/01/02 09:51:44;;;;;;;10.48;4.35;;;;;;;;;;5032678;28;20053;-59
2022/01/02 09:54:10;;;;;;;8.55;3.80;;;;;;;;;;5032569;28;20480;-58
2022/01/02 09:56:36;;;;;;;8.90;4.18;;;;;;;;;;5032365;28;20083;-59
2022/01/02 09:59:03;;;;;;;7.20;3.35;;;;;;;;;;5032398;28;20021;-66
2022/01/02 10:01:32;;;;;;;10.65;4.70;;;;;;;;;;5032331;28;20377;-66
2022/01/02 10:03:58;;;;;;;8.00;4.00;;;;;;;;;;5032280;28;20068;-66
2022/01/02 10:06:48;;;;;;;10.50;4.40;;;;;;;;;;5032249;28;20029;-64
2022/01/02 10:09:31;;;;;;;9.00;4.10;;;;;;;;;;5032404;28;20028;-67
2022/01/02 10:12:21;;;;;;;7.55;3.92;;;;;;;;;;5032167;28;20159;-67
2022/01/02 10:15:12;;;;;;;9.90;3.97;;;;;;;;;;5020659;28;20052;-67
2022/01/02 10:18:05;;;;;;;10.18;3.67;;;;;;;;;;5032290;28;20258;-66
2022/01/02 10:20:42;;;;;;;11.20;3.80;;;;;;;;;;5032288;28;20029;-64
2022/01/02 10:23:18;;;;;;;7.32;3.08;;;;;;;;;;5014429;28;20506;-67
2022/01/02 10:26:00;;;;;;;7.00;2.92;;;;;;;;;;5032441;28;20038;-61
2022/01/02 10:28:43;;;;;;;7.53;3.20;;;;;;;;;;5031778;28;20104;-65
2022/01/02 10:31:14;;;;;;;6.47;3.40;;;;;;;;;;5013992;28;20370;-67
2022/01/02 10:34:02;;;;;;;8.25;2.97;;;;;;;;;;5031707;28;20245;-64
2022/01/02 10:36:29;;;;;;;7.35;3.17;;;;;;;;;;5032281;28;20026;-66
2022/01/02 10:39:09;;;;;;;10.80;3.60;;;;;;;;;;5032021;28;20414;-67
2022/01/02 10:41:44;;;;;;;5.47;3.30;;;;;;;;;;5032161;28;20041;-67
2022/01/02 10:44:29;;;;;;;6.25;3.20;;;;;;;;;;5031877;28;20033;-64
2022/01/02 10:47:17;;;;;;;5.55;2.75;;;;;;;;;;5032522;28;20029;-62
2022/01/02 10:49:55;;;;;;;7.65;3.00;;;;;;;;;;5024153;28;20021;-67
2022/01/02 10:52:38;;;;;;;6.03;3.13;;;;;;;;;;5035334;28;20060;-64
2022/01/02 10:55:18;;;;;;;7.93;3.42;;;;;;;;;;5035572;28;20064;-65
2022/01/02 10:57:47;;;;;;;8.98;3.83;;;;;;;;;;5035586;28;20025;-63
2022/01/02 11:00:14;;;;;;;6.80;3.17;;;;;;;;;;5035471;28;20446;-66
2022/01/02 11:02:39;;;;;;;7.03;3.30;;;;;;;;;;5035306;28;20026;-66
2022/01/02 11:05:10;;;;;;;6.03;2.88;;;;;;;;;;5035385;28;20112;-67
2022/01/02 11:07:50;;;;;;;6.32;3.20;;;;;;;;;;5035402;28;20025;-63
2022/01/02 11:10:18;;;;;;;11.27;3.45;;;;;;;;;;5035367;28;20025;-65
2022/01/02 11:12:44;;;;;;;10.43;3.50;;;;;;;;;;5035230;28;20029;-66
2022/01/02 11:15:13;;;;;;;7.35;3.20;;;;;;;;;;5035142;28;20029;-63
2022/01/02 11:17:39;;;;;;;7.47;2.40;;;;;;;;;;5035011;28;20030;-66
2022/01/02 11:20:10;;;;;;;9.32;3.25;;;;;;;;;;5035099;28;20155;-67
2022/01/02 11:22:54;;;;;;;8.18;2.97;;;;;;;;;;5035137;28;20029;-66
2022/01/02 11:25:41;;;;;;;5.22;2.80;;;;;;;;;;5034931;28;20025;-66
2022/01/02 11:28:26;;;;;;;8.52;3.35;;;;;;;;;;5034586;28;20472;-66
2022/01/02 11:30:53;;;;;;;6.00;3.40;;;;;;;;;;5034652;28;20544;-65
2022/01/02 11:33:27;;;;;;;10.05;3.15;;;;;;;;;;5034674;28;20029;-66
2022/01/02 11:35:56;;;;;;;5.65;3.22;;;;;;;;;;5034916;28;20029;-64
2022/01/02 11:38:22;;;;;;;6.78;2.78;;;;;;;;;;5034680;28;20022;-64
2022/01/02 11:40:53;;;;;;;9.00;3.38;;;;;;;;;;5034765;28;20025;-63
2022/01/02 11:43:49;;;;;;;16.58;4.05;;;;;;;;;;5034804;28;20034;-64
2022/01/02 11:46:17;;;;;;;10.35;3.40;;;;;;;;;;5034499;28;20053;-65
2022/01/02 11:49:03;;;;;;;9.18;3.10;;;;;;;;;;5034743;28;20104;-66
2022/01/02 11:51:46;;;;;;;7.50;3.60;;;;;;;;;;5034480;28;20030;-62
2022/01/02 11:54:43;;;;;;;7.20;3.20;;;;;;;;;;5034403;28;20087;-66
2022/01/02 11:57:12;;;;;;;5.57;3.13;;;;;;;;;;5034314;28;20026;-65
2022/01/02 11:59:43;;;;;;;7.10;2.97;;;;;;;;;;5033086;28;20537;-63
2022/01/02 12:02:26;;;;;;;9.25;3.55;;;;;;;;;;5034086;28;20026;-62
2022/01/02 12:10:20;;;;;;;11.77;3.15;;;;;;;;;;5034184;28;20074;-63
2022/01/02 12:13:13;;;;;;;8.27;3.75;;;;;;;;;;5033639;28;20037;-63
2022/01/02 12:15:39;;;;;;;11.68;3.25;;;;;;;;;;5033654;28;20068;-61
2022/01/02 12:18:07;;;;;;;6.72;2.90;;;;;;;;;;5034255;28;20025;-60
2022/01/02 12:20:51;;;;;;;8.52;2.88;;;;;;;;;;5034014;28;20066;-60
2022/01/02 12:23:35;;;;;;;8.48;2.28;;;;;;;;;;5033887;28;20044;-59
2022/01/02 12:26:15;;;;;;;8.07;2.90;;;;;;;;;;5033993;28;20135;-60
2022/01/02 12:28:46;;;;;;;;;;;;;;;;;;5033796;28;20021;-60
2022/01/02 12:31:15;;;;;;;6.05;2.70;;;;;;;;;;5033889;28;19917;-59
2022/01/02 12:33:42;;;;;;;8.32;2.92;;;;;;;;;;5033597;28;20025;-58
2022/01/02 12:36:08;;;;;;;5.47;2.70;;;;;;;;;;5033765;28;20025;-59
2022/01/02 12:39:00;;;;;;;6.60;3.13;;;;;;;;;;5033661;28;20490;-58
2022/01/02 12:41:31;;;;;;;7.00;3.10;;;;;;;;;;5033640;28;20028;-57
2022/01/02 12:44:03;;;;;;;7.28;3.53;;;;;;;;;;5033423;28;20032;-59
2022/01/02 12:46:38;;;;;;;7.28;2.95;;;;;;;;;;5033879;28;20018;-58
2022/01/02 12:49:09;;;;;;;7.82;3.30;;;;;;;;;;5033266;28;20480;-60
2022/01/02 12:51:37;;;;;;;6.88;2.85;;;;;;;;;;5033582;28;20400;-58
2022/01/02 12:54:06;;;;;;;9.50;3.00;;;;;;;;;;5033588;28;20380;-61
2022/01/02 12:56:37;;;;;;;11.23;3.70;;;;;;;;;;5033018;28;20072;-59
2022/01/02 12:59:23;;;;;;;9.98;3.67;;;;;;;;;;5033154;28;20032;-57
2022/01/02 13:01:48;;;;;;;13.32;3.80;;;;;;;;;;5033263;28;20028;-58
2022/01/02 13:04:15;;;;;;;9.80;3.30;;;;;;;;;;5032848;28;20029;-57
2022/01/02 13:06:44;;;;;;;7.93;3.08;;;;;;;;;;5033164;28;20021;-62
2022/01/02 13:09:09;;;;;;;6.80;3.17;;;;;;;;;;5033327;28;20431;-64
2022/01/02 13:11:36;;;;;;;5.72;2.70;;;;;;;;;;5032984;28;20033;-65
2022/01/02 13:14:01;;;;;;;5.80;2.72;;;;;;;;;;5032708;28;20029;-66
2022/01/02 13:16:27;;;;;;;7.47;3.00;;;;;;;;;;5033028;28;20025;-66
2022/01/02 13:18:53;;;;;;;6.72;3.38;;;;;;;;;;5032868;28;20038;-66
2022/01/02 13:21:19;;;;;;;7.80;3.05;;;;;;;;;;5032990;28;20025;-66
2022/01/02 13:23:44;;;;;;;7.88;2.95;;;;;;;;;;5032688;28;20384;-64
2022/01/02 13:26:18;;;;;;;10.35;3.17;;;;;;;;;;5032832;28;20045;-66
2022/01/02 13:28:44;;;;;;;8.23;3.35;;;;;;;;;;5032422;28;20030;-65
2022/01/02 13:31:10;;;;;;;10.18;3.80;;;;;;;;;;5032699;28;20307;-63
2022/01/02 13:33:42;;;;;;;9.52;3.35;;;;;;;;;;5032480;28;20116;-60
2022/01/02 13:36:14;;;;;;;6.70;2.92;;;;;;;;;;5032669;28;20477;-64
2022/01/02 13:38:58;;;;;;;11.50;3.67;;;;;;;;;;5032447;28;20030;-66
2022/01/02 13:41:25;;;;;;;7.72;3.08;;;;;;;;;;5032237;28;20069;-65
2022/01/02 13:43:52;;;;;;;11.18;3.72;;;;;;;;;;5032211;28;20472;-60
2022/01/02 13:46:17;;;;;;;10.27;3.97;;;;;;;;;;5032795;28;20034;-59
2022/01/02 13:48:43;;;;;;;9.40;2.88;;;;;;;;;;5032568;28;20376;-64
2022/01/02 13:51:14;;;;;;;10.13;3.47;;;;;;;;;;5032613;28;20500;-65
2022/01/02 13:53:39;;;;;;;7.25;3.30;;;;;;;;;;5032382;28;20160;-58
2022/01/02 13:56:05;;;;;;;8.23;3.00;;;;;;;;;;5032282;28;20520;-64
2022/01/02 13:58:39;;;;;;;7.50;3.40;;;;;;;;;;5032436;28;20412;-59
2022/01/02 14:01:06;;;;;;;7.22;2.78;;;;;;;;;;5032255;28;20061;-62
2022/01/02 14:03:37;;;;;;;9.80;3.33;;;;;;;;;;5031931;28;20033;-60
2022/01/02 14:06:28;;;;;;;12.10;3.55;;;;;;;;;;5032184;28;20357;-59
2022/01/02 14:08:54;;;;;;;14.23;3.80;;;;;;;;;;5014389;28;20094;-65
2022/01/02 14:11:27;;;;;;;8.25;3.72;;;;;;;;;;5032073;28;20120;-58
2022/01/02 14:14:05;;;;;;;10.70;3.58;;;;;;;;;;5032348;28;20033;-64
2022/01/02 14:16:59;;;;;;;12.00;3.83;;;;;;;;;;5032243;28;20029;-58
2022/01/02 14:19:25;;;;;;;10.00;4.15;;;;;;;;;;5032165;28;20029;-60
2022/01/02 14:21:50;;;;;;;8.32;3.33;;;;;;;;;;5032759;28;20152;-59
2022/01/02 14:24:16;;;;;;;10.45;3.83;;;;;;;;;;5035801;28;20087;-62
2022/01/02 14:26:41;;;;;;;10.10;3.80;;;;;;;;;;5036030;28;20063;-58
2022/01/02 14:29:07;;;;;;;11.05;3.63;;;;;;;;;;5036247;28;20024;-62
2022/01/02 14:31:33;;;;;;;7.53;4.00;;;;;;;;;;5035725;28;20095;-61
2022/01/02 14:33:59;;;;;;;8.32;3.60;;;;;;;;;;5035675;28;20481;-63
2022/01/02 14:36:25;;;;;;;9.23;4.00;;;;;;;;;;5036033;28;20488;-61
2022/01/02 14:38:50;;;;;;;7.93;3.80;;;;;;;;;;5035811;28;20033;-62
2022/01/02 14:41:19;;;;;;;9.65;3.58;;;;;;;;;;5035713;28;20032;-63
2022/01/02 14:43:47;;;;;;;12.27;3.92;;;;;;;;;;5035799;28;20041;-64
2022/01/02 14:46:13;;;;;;;9.07;3.83;;;;;;;;;;5035843;28;20052;-66
2022/01/02 14:48:38;;;;;;;8.35;4.05;;;;;;;;;;5035762;28;20456;-66
2022/01/02 14:51:05;;;;;;;10.77;3.72;;;;;;;;;;5035898;28;20025;-66
2022/01/02 14:53:31;;;;;;;10.63;3.85;;;;;;;;;;5035450;28;20137;-67
2022/01/02 14:55:57;;;;;;;7.95;3.70;;;;;;;;;;5035644;28;20022;-67
2022/01/02 14:58:23;;;;;;;7.28;3.30;;;;;;;;;;5035735;28;20030;-67